createdAt,value
2019-02-05T00:00:49.636Z,994.675
2019-02-05T00:02:50.463Z,994.657
2019-02-05T00:04:50.312Z,994.649
2019-02-05T00:06:50.194Z,994.638
2019-02-05T00:08:49.943Z,994.600
2019-02-05T00:10:49.726Z,994.543
2019-02-05T00:12:50.466Z,994.481
2019-02-05T00:14:50.275Z,994.469
2019-02-05T00:16:50.113Z,994.447
2019-02-05T00:18:51.975Z,994.442
2019-02-05T00:20:49.783Z,994.462
2019-02-05T00:22:50.620Z,994.509
2019-02-05T00:24:50.352Z,994.509
2019-02-05T00:26:50.805Z,994.481
2019-02-05T00:28:49.718Z,994.457
2019-02-05T00:30:50.550Z,994.326
2019-02-05T00:32:50.357Z,994.272
2019-02-05T00:34:50.877Z,994.195
2019-02-05T00:36:49.951Z,994.249
2019-02-05T00:38:49.700Z,994.276
2019-02-05T00:40:50.479Z,994.281
2019-02-05T00:42:50.223Z,994.204
2019-02-05T00:44:50.052Z,994.133
2019-02-05T00:46:49.887Z,994.126
2019-02-05T00:48:49.650Z,994.087
2019-02-05T00:50:50.412Z,994.076
2019-02-05T00:52:50.172Z,994.113
2019-02-05T00:54:49.943Z,994.168
2019-02-05T00:56:49.833Z,994.229
2019-02-05T00:58:50.595Z,994.243
2019-02-05T01:00:50.361Z,994.291
2019-02-05T01:02:50.145Z,994.300
2019-02-05T01:04:50.136Z,994.287
2019-02-05T01:06:50.026Z,994.311
2019-02-05T01:08:49.814Z,994.313
2019-02-05T01:10:50.570Z,994.254
2019-02-05T01:12:50.405Z,994.242
2019-02-05T01:14:50.239Z,994.231
2019-02-05T01:16:50.085Z,994.238
2019-02-05T01:18:49.859Z,994.281
2019-02-05T01:20:49.639Z,994.314
2019-02-05T01:22:50.531Z,994.321
2019-02-05T01:24:50.287Z,994.399
2019-02-05T01:26:50.176Z,994.423
2019-02-05T01:28:50.381Z,994.466
2019-02-05T01:30:50.182Z,994.509
2019-02-05T01:32:50.089Z,994.468
2019-02-05T01:34:49.987Z,994.353
2019-02-05T01:36:50.311Z,994.353
2019-02-05T01:38:50.354Z,994.232
2019-02-05T01:40:50.134Z,994.209
2019-02-05T01:42:49.969Z,994.153
2019-02-05T01:44:50.393Z,994.126
2019-02-05T01:46:50.577Z,994.112
2019-02-05T01:48:50.305Z,994.118
2019-02-05T01:50:50.127Z,994.142
2019-02-05T01:52:50.577Z,994.096
2019-02-05T01:54:49.780Z,994.068
2019-02-05T01:56:49.708Z,994.061
2019-02-05T01:58:50.485Z,994.073
2019-02-05T02:00:50.336Z,994.123
2019-02-05T02:02:50.157Z,994.123
2019-02-05T02:04:50.233Z,994.052
2019-02-05T02:06:50.049Z,994.018
2019-02-05T02:08:49.954Z,993.983
2019-02-05T02:10:49.745Z,993.980
2019-02-05T02:12:50.685Z,993.974
2019-02-05T02:14:49.834Z,993.962
2019-02-05T02:16:49.716Z,993.965
2019-02-05T02:18:50.550Z,993.965
2019-02-05T02:20:50.410Z,993.900
2019-02-05T02:22:50.293Z,993.886
2019-02-05T02:24:50.222Z,993.865
2019-02-05T02:26:52.661Z,993.811
2019-02-05T02:28:50.658Z,993.783
2019-02-05T02:30:50.802Z,993.738
2019-02-05T02:32:49.768Z,993.738
2019-02-05T02:34:49.833Z,993.722
2019-02-05T02:36:49.884Z,993.703
2019-02-05T02:38:50.370Z,993.618
2019-02-05T02:40:50.448Z,993.588
2019-02-05T02:42:50.303Z,993.593
2019-02-05T02:44:50.127Z,993.621
2019-02-05T02:46:50.803Z,993.629
2019-02-05T02:48:49.910Z,993.600
2019-02-05T02:50:49.680Z,993.567
2019-02-05T02:52:50.502Z,993.505
2019-02-05T02:54:50.310Z,993.487
2019-02-05T02:56:50.179Z,993.423
2019-02-05T02:58:50.027Z,993.399
2019-02-05T03:00:49.838Z,993.388
2019-02-05T03:02:49.658Z,993.402
2019-02-05T03:04:50.638Z,993.386
2019-02-05T03:06:50.531Z,993.344
2019-02-05T03:08:50.270Z,993.323
2019-02-05T03:10:50.211Z,993.292
2019-02-05T03:12:49.997Z,993.292
2019-02-05T03:14:49.848Z,993.278
2019-02-05T03:16:49.816Z,993.250
2019-02-05T03:18:50.650Z,993.213
2019-02-05T03:20:50.536Z,993.210
2019-02-05T03:22:50.381Z,993.221
2019-02-05T03:24:50.178Z,993.304
2019-02-05T03:26:50.084Z,993.327
2019-02-05T03:28:49.874Z,993.338
2019-02-05T03:30:53.938Z,993.352
2019-02-05T03:32:50.224Z,993.349
2019-02-05T03:34:50.354Z,993.312
2019-02-05T03:36:50.374Z,993.293
2019-02-05T03:38:50.153Z,993.256
2019-02-05T03:40:49.935Z,993.208
2019-02-05T03:42:49.751Z,993.201
2019-02-05T03:44:50.552Z,993.203
2019-02-05T03:46:50.377Z,993.238
2019-02-05T03:48:50.176Z,993.287
2019-02-05T03:50:50.047Z,993.384
2019-02-05T03:52:50.584Z,993.495
2019-02-05T03:54:49.694Z,993.551
2019-02-05T03:56:50.521Z,993.637
2019-02-05T03:58:50.278Z,993.715
2019-02-05T04:00:50.190Z,993.721
2019-02-05T04:02:50.146Z,993.689
2019-02-05T04:04:50.172Z,993.679
2019-02-05T04:06:49.973Z,993.641
2019-02-05T04:08:49.938Z,993.619
2019-02-05T04:10:49.752Z,993.614
2019-02-05T04:12:50.712Z,993.594
2019-02-05T04:14:50.559Z,993.581
2019-02-05T04:16:50.273Z,993.566
2019-02-05T04:18:50.055Z,993.566
2019-02-05T04:20:49.873Z,993.550
2019-02-05T04:22:49.685Z,993.467
2019-02-05T04:24:50.518Z,993.487
2019-02-05T04:26:50.944Z,993.495
2019-02-05T04:28:49.778Z,993.460
2019-02-05T04:30:51.096Z,993.436
2019-02-05T04:32:50.226Z,993.451
2019-02-05T04:34:50.266Z,993.470
2019-02-05T04:36:50.210Z,993.496
2019-02-05T04:38:50.660Z,993.530
2019-02-05T04:40:49.729Z,993.665
2019-02-05T04:42:50.562Z,993.673
2019-02-05T04:44:50.406Z,993.697
2019-02-05T04:46:50.211Z,993.713
2019-02-05T04:48:49.985Z,993.682
2019-02-05T04:50:49.826Z,993.662
2019-02-05T04:52:50.617Z,993.651
2019-02-05T04:54:50.392Z,993.673
2019-02-05T04:56:49.634Z,993.685
2019-02-05T04:58:50.440Z,993.710
2019-02-05T05:00:50.216Z,993.735
2019-02-05T05:02:50.059Z,993.699
2019-02-05T05:04:50.105Z,993.697
2019-02-05T05:06:50.006Z,993.738
2019-02-05T05:08:49.849Z,993.746
2019-02-05T05:10:50.662Z,993.743
2019-02-05T05:12:50.446Z,993.742
2019-02-05T05:14:50.217Z,993.749
2019-02-05T05:16:50.640Z,993.722
2019-02-05T05:18:49.786Z,993.711
2019-02-05T05:20:50.603Z,993.710
2019-02-05T05:22:50.421Z,993.740
2019-02-05T05:24:50.217Z,993.775
2019-02-05T05:26:50.543Z,993.831
2019-02-05T05:28:50.375Z,993.843
2019-02-05T05:30:50.161Z,993.905
2019-02-05T05:32:50.001Z,993.923
2019-02-05T05:34:50.164Z,993.988
2019-02-05T05:36:49.976Z,994.001
2019-02-05T05:38:50.454Z,994.017
2019-02-05T05:40:50.550Z,993.943
2019-02-05T05:42:50.333Z,993.940
2019-02-05T05:44:50.150Z,993.940
2019-02-05T05:46:50.635Z,993.943
2019-02-05T05:48:49.725Z,993.936
2019-02-05T05:50:50.525Z,993.903
2019-02-05T05:52:50.310Z,993.903
2019-02-05T05:54:50.077Z,993.937
2019-02-05T05:56:49.907Z,993.942
2019-02-05T05:58:49.658Z,993.934
2019-02-05T06:00:50.584Z,993.922
2019-02-05T06:02:50.381Z,993.920
2019-02-05T06:04:50.517Z,993.944
2019-02-05T06:06:50.376Z,993.939
2019-02-05T06:08:50.662Z,994.000
2019-02-05T06:10:49.759Z,994.000
2019-02-05T06:12:50.545Z,994.076
2019-02-05T06:14:50.317Z,994.098
2019-02-05T06:16:50.333Z,994.116
2019-02-05T06:18:50.100Z,994.184
2019-02-05T06:20:49.961Z,994.194
2019-02-05T06:22:49.726Z,994.187
2019-02-05T06:24:50.603Z,994.187
2019-02-05T06:26:50.527Z,994.118
2019-02-05T06:28:50.320Z,994.114
2019-02-05T06:30:50.216Z,994.162
2019-02-05T06:32:50.025Z,994.196
2019-02-05T06:34:50.216Z,994.285
2019-02-05T06:36:50.494Z,994.285
2019-02-05T06:38:50.951Z,994.332
2019-02-05T06:40:50.137Z,994.324
2019-02-05T06:42:49.941Z,994.315
2019-02-05T06:44:49.722Z,994.322
2019-02-05T06:46:50.603Z,994.379
2019-02-05T06:48:50.395Z,994.392
2019-02-05T06:50:50.180Z,994.392
2019-02-05T06:52:49.930Z,994.485
2019-02-05T06:54:49.707Z,994.491
2019-02-05T06:56:50.554Z,994.501
2019-02-05T06:58:50.309Z,994.501
2019-02-05T07:00:50.565Z,994.526
2019-02-05T07:02:53.653Z,994.526
2019-02-05T07:04:50.558Z,994.518
2019-02-05T07:06:50.374Z,994.480
2019-02-05T07:08:50.805Z,994.480
2019-02-05T07:10:50.047Z,994.498
2019-02-05T07:12:49.815Z,994.532
2019-02-05T07:14:49.644Z,994.568
2019-02-05T07:16:50.543Z,994.544
2019-02-05T07:18:50.386Z,994.501
2019-02-05T07:20:50.224Z,994.501
2019-02-05T07:22:49.984Z,994.500
2019-02-05T07:24:49.857Z,994.499
2019-02-05T07:26:49.816Z,994.506
2019-02-05T07:29:02.264Z,994.492
2019-02-05T07:30:51.024Z,994.483
2019-02-05T07:32:50.064Z,994.490
2019-02-05T07:34:50.178Z,994.546
2019-02-05T07:36:50.157Z,994.564
2019-02-05T07:38:49.990Z,994.639
2019-02-05T07:40:49.808Z,994.684
2019-02-05T07:42:49.694Z,994.689
2019-02-05T07:44:51.179Z,994.722
2019-02-05T07:46:50.377Z,994.722
2019-02-05T07:48:50.167Z,994.737
2019-02-05T07:50:50.044Z,994.761
2019-02-05T07:52:49.829Z,994.773
2019-02-05T07:54:49.819Z,994.775
2019-02-05T07:56:49.787Z,994.749
2019-02-05T07:58:50.662Z,994.762
2019-02-05T08:00:50.558Z,994.751
2019-02-05T08:02:50.487Z,994.749
2019-02-05T08:04:50.495Z,994.755
2019-02-05T08:06:50.944Z,994.758
2019-02-05T08:08:49.995Z,994.755
2019-02-05T08:10:49.792Z,994.754
2019-02-05T08:12:50.643Z,994.754
2019-02-05T08:14:50.424Z,994.692
2019-02-05T08:16:50.463Z,994.675
2019-02-05T08:18:50.352Z,994.688
2019-02-05T08:20:50.156Z,994.705
2019-02-05T08:22:49.944Z,994.707
2019-02-05T08:24:49.797Z,994.713
2019-02-05T08:26:49.805Z,994.700
2019-02-05T08:28:49.713Z,994.700
2019-02-05T08:30:50.596Z,994.696
2019-02-05T08:32:50.405Z,994.693
2019-02-05T08:34:51.251Z,994.688
2019-02-05T08:36:49.878Z,994.662
2019-02-05T08:38:49.675Z,994.644
2019-02-05T08:40:50.513Z,994.680
2019-02-05T08:42:50.322Z,994.688
2019-02-05T08:44:50.163Z,994.726
2019-02-05T08:46:50.156Z,994.751
2019-02-05T08:48:50.064Z,994.775
2019-02-05T08:50:49.926Z,994.775
2019-02-05T08:52:49.703Z,994.780
2019-02-05T08:54:50.489Z,994.760
2019-02-05T08:56:50.864Z,994.744
2019-02-05T08:58:50.049Z,994.741
2019-02-05T09:00:49.874Z,994.747
2019-02-05T09:02:49.663Z,994.731
2019-02-05T09:04:49.892Z,994.750
2019-02-05T09:06:49.788Z,994.801
2019-02-05T09:08:50.624Z,994.812
2019-02-05T09:10:50.480Z,994.814
2019-02-05T09:12:50.414Z,994.836
2019-02-05T09:14:50.304Z,994.852
2019-02-05T09:16:50.297Z,994.868
2019-02-05T09:18:50.524Z,994.897
2019-02-05T09:20:50.646Z,994.909
2019-02-05T09:22:50.631Z,994.956
2019-02-05T09:24:50.573Z,995.005
2019-02-05T09:26:50.486Z,995.037
2019-02-05T09:28:52.815Z,995.006
2019-02-05T09:30:50.627Z,995.006
2019-02-05T09:32:50.531Z,995.005
2019-02-05T09:34:50.511Z,995.044
2019-02-05T09:36:50.410Z,995.123
2019-02-05T09:38:50.189Z,995.202
2019-02-05T09:40:50.486Z,995.222
2019-02-05T09:42:50.474Z,995.218
2019-02-05T09:44:50.279Z,995.219
2019-02-05T09:46:50.347Z,995.216
2019-02-05T09:48:50.399Z,995.230
2019-02-05T09:50:50.416Z,995.221
2019-02-05T09:52:50.654Z,995.196
2019-02-05T09:54:49.702Z,995.194
2019-02-05T09:56:49.877Z,995.184
2019-02-05T09:58:50.090Z,995.216
2019-02-05T10:00:50.152Z,995.213
2019-02-05T10:02:50.730Z,995.216
2019-02-05T10:04:49.811Z,995.210
2019-02-05T10:06:50.459Z,995.208
2019-02-05T10:08:50.570Z,995.248
2019-02-05T10:10:50.872Z,995.259
2019-02-05T10:12:49.932Z,995.299
2019-02-05T10:14:50.084Z,995.318
2019-02-05T10:16:50.428Z,995.328
2019-02-05T10:18:50.408Z,995.331
2019-02-05T10:20:50.423Z,995.340
2019-02-05T10:22:50.474Z,995.334
2019-02-05T10:24:50.766Z,995.334
2019-02-05T10:26:49.898Z,995.327
2019-02-05T10:28:50.191Z,995.264
2019-02-05T10:30:50.442Z,995.264
2019-02-05T10:32:51.439Z,995.273
2019-02-05T10:34:50.615Z,995.273
2019-02-05T10:36:49.684Z,995.303
2019-02-05T10:38:49.869Z,995.316
2019-02-05T10:40:50.149Z,995.303
2019-02-05T10:42:50.410Z,995.263
2019-02-05T10:44:50.618Z,995.231
2019-02-05T10:46:49.891Z,995.200
2019-02-05T10:48:50.175Z,995.180
2019-02-05T10:50:50.445Z,995.105
2019-02-05T10:52:49.796Z,995.102
2019-02-05T10:54:50.722Z,995.077
2019-02-05T10:56:50.207Z,995.051
2019-02-05T10:58:50.562Z,995.038
2019-02-05T11:00:49.892Z,995.012
2019-02-05T11:02:49.956Z,995.028
2019-02-05T11:04:50.219Z,995.040
2019-02-05T11:06:50.702Z,995.040
2019-02-05T11:08:49.921Z,995.026
2019-02-05T11:10:50.215Z,995.029
2019-02-05T11:12:50.460Z,994.980
2019-02-05T11:14:49.692Z,994.980
2019-02-05T11:16:50.650Z,994.961
2019-02-05T11:18:50.065Z,994.975
2019-02-05T11:20:50.318Z,994.963
2019-02-05T11:22:50.519Z,994.979
2019-02-05T11:24:49.838Z,995.014
2019-02-05T11:26:50.076Z,995.026
2019-02-05T11:28:50.346Z,995.000
2019-02-05T11:30:50.554Z,995.022
2019-02-05T11:32:53.207Z,995.041
2019-02-05T11:34:49.787Z,995.070
2019-02-05T11:36:50.074Z,995.059
2019-02-05T11:38:50.657Z,995.062
2019-02-05T11:40:49.935Z,995.069
2019-02-05T11:42:50.125Z,995.057
2019-02-05T11:44:50.431Z,995.035
2019-02-05T11:46:49.704Z,995.037
2019-02-05T11:48:49.887Z,995.066
2019-02-05T11:50:50.096Z,995.077
2019-02-05T11:52:50.383Z,995.062
2019-02-05T11:54:50.623Z,995.089
2019-02-05T11:56:49.878Z,995.103
2019-02-05T11:58:50.154Z,995.121
2019-02-05T12:00:51.039Z,995.122
2019-02-05T12:02:50.487Z,995.094
2019-02-05T12:04:49.932Z,995.064
2019-02-05T12:06:50.222Z,995.038
2019-02-05T12:08:50.534Z,995.015
2019-02-05T12:10:49.838Z,994.983
2019-02-05T12:12:50.164Z,994.977
2019-02-05T12:14:50.808Z,994.950
2019-02-05T12:16:50.184Z,994.963
2019-02-05T12:18:50.542Z,994.993
2019-02-05T12:20:49.775Z,994.972
2019-02-05T12:22:50.718Z,994.964
2019-02-05T12:24:49.737Z,994.953
2019-02-05T12:26:50.055Z,994.923
2019-02-05T12:28:50.242Z,994.924
2019-02-05T12:30:50.442Z,994.935
2019-02-05T12:32:49.657Z,994.934
2019-02-05T12:34:50.096Z,994.927
2019-02-05T12:36:50.324Z,994.909
2019-02-05T12:38:50.489Z,994.925
2019-02-05T12:40:49.622Z,994.896
2019-02-05T12:42:49.795Z,994.840
2019-02-05T12:44:50.465Z,994.804
2019-02-05T12:46:49.721Z,994.771
2019-02-05T12:48:49.931Z,994.722
2019-02-05T12:50:50.190Z,994.672
2019-02-05T12:52:50.913Z,994.636
2019-02-05T12:54:50.653Z,994.621
2019-02-05T12:56:50.095Z,994.606
2019-02-05T12:58:50.409Z,994.544
2019-02-05T13:01:01.553Z,994.544
2019-02-05T13:02:49.659Z,994.507
2019-02-05T13:04:50.082Z,994.492
2019-02-05T13:06:50.361Z,994.483
2019-02-05T13:08:50.460Z,994.470
2019-02-05T13:10:50.580Z,994.444
2019-02-05T13:12:49.769Z,994.439
2019-02-05T13:14:49.897Z,994.439
2019-02-05T13:16:50.142Z,994.439
2019-02-05T13:18:52.257Z,994.413
2019-02-05T13:20:50.359Z,994.422
2019-02-05T13:22:50.509Z,994.403
2019-02-05T13:24:49.704Z,994.402
2019-02-05T13:26:49.839Z,994.354
2019-02-05T13:28:50.052Z,994.320
2019-02-05T13:30:50.609Z,994.320
2019-02-05T13:32:49.802Z,994.311
2019-02-05T13:34:50.116Z,994.347
2019-02-05T13:36:50.357Z,994.352
2019-02-05T13:38:50.913Z,994.343
2019-02-05T13:40:49.713Z,994.350
2019-02-05T13:42:49.837Z,994.351
2019-02-05T13:44:50.106Z,994.376
2019-02-05T13:46:50.895Z,994.371
2019-02-05T13:48:50.307Z,994.376
2019-02-05T13:50:50.528Z,994.354
2019-02-05T13:52:49.657Z,994.364
2019-02-05T13:54:49.749Z,994.372
2019-02-05T13:56:50.075Z,994.362
2019-02-05T13:58:50.152Z,994.349
2019-02-05T14:00:50.355Z,994.328
2019-02-05T14:02:50.446Z,994.321
2019-02-05T14:04:49.891Z,994.316
2019-02-05T14:06:50.888Z,994.298
2019-02-05T14:08:50.052Z,994.285
2019-02-05T14:10:50.213Z,994.291
2019-02-05T14:12:50.357Z,994.261
2019-02-05T14:14:50.496Z,994.245
2019-02-05T14:16:49.642Z,994.231
2019-02-05T14:18:56.115Z,994.244
2019-02-05T14:20:50.423Z,994.251
2019-02-05T14:22:50.576Z,994.284
2019-02-05T14:24:50.291Z,994.342
2019-02-05T14:26:50.518Z,994.388
2019-02-05T14:28:49.763Z,994.387
2019-02-05T14:30:49.908Z,994.406
2019-02-05T14:32:50.705Z,994.430
2019-02-05T14:34:49.670Z,994.430
2019-02-05T14:36:49.954Z,994.460
2019-02-05T14:38:50.188Z,994.457
2019-02-05T14:40:50.379Z,994.437
2019-02-05T14:42:50.575Z,994.405
2019-02-05T14:44:49.824Z,994.397
2019-02-05T14:46:50.020Z,994.399
2019-02-05T14:48:50.208Z,994.400
2019-02-05T14:50:50.341Z,994.388
2019-02-05T14:52:50.511Z,994.390
2019-02-05T14:54:49.719Z,994.400
2019-02-05T14:56:49.999Z,994.441
2019-02-05T14:58:50.174Z,994.433
2019-02-05T15:00:50.276Z,994.417
2019-02-05T15:02:50.474Z,994.403
2019-02-05T15:04:49.843Z,994.403
2019-02-05T15:06:50.003Z,994.422
2019-02-05T15:08:50.327Z,994.437
2019-02-05T15:10:50.519Z,994.455
2019-02-05T15:12:49.660Z,994.480
2019-02-05T15:14:49.781Z,994.478
2019-02-05T15:16:50.100Z,994.476
2019-02-05T15:18:50.512Z,994.484
2019-02-05T15:20:50.229Z,994.467
2019-02-05T15:22:50.350Z,994.484
2019-02-05T15:24:50.583Z,994.502
2019-02-05T15:26:50.194Z,994.537
2019-02-05T15:28:49.788Z,994.550
2019-02-05T15:30:49.895Z,994.558
2019-02-05T15:32:50.011Z,994.541
2019-02-05T15:34:50.828Z,994.510
2019-02-05T15:36:50.486Z,994.488
2019-02-05T15:38:50.411Z,994.496
2019-02-05T15:40:50.321Z,994.484
2019-02-05T15:42:50.865Z,994.518
2019-02-05T15:44:50.551Z,994.521
2019-02-05T15:46:50.593Z,994.522
2019-02-05T15:48:50.587Z,994.509
2019-02-05T15:50:50.646Z,994.509
2019-02-05T15:52:49.714Z,994.519
2019-02-05T15:54:49.628Z,994.526
2019-02-05T15:56:49.786Z,994.557
2019-02-05T15:58:49.762Z,994.570
2019-02-05T16:00:49.955Z,994.590
2019-02-05T16:02:49.976Z,994.634
2019-02-05T16:04:50.393Z,994.660
2019-02-05T16:06:50.561Z,994.684
2019-02-05T16:08:50.530Z,994.717
2019-02-05T16:10:50.520Z,994.728
2019-02-05T16:12:50.835Z,994.748
2019-02-05T16:14:50.026Z,994.774
2019-02-05T16:16:49.926Z,994.789
2019-02-05T16:18:53.497Z,994.801
2019-02-05T16:20:51.036Z,994.799
2019-02-05T16:22:50.253Z,994.799
2019-02-05T16:24:50.033Z,994.819
2019-02-05T16:26:49.855Z,994.852
2019-02-05T16:28:49.727Z,994.885
2019-02-05T16:30:50.687Z,994.929
2019-02-05T16:32:50.454Z,994.929
2019-02-05T16:34:50.708Z,994.925
2019-02-05T16:36:50.530Z,994.925
2019-02-05T16:38:50.352Z,994.956
2019-02-05T16:40:50.127Z,994.986
2019-02-05T16:42:49.915Z,995.005
2019-02-05T16:44:49.820Z,995.029
2019-02-05T16:46:49.847Z,995.042
2019-02-05T16:48:49.696Z,995.059
2019-02-05T16:50:50.464Z,995.094
2019-02-05T16:52:50.238Z,995.118
2019-02-05T16:54:50.011Z,995.114
2019-02-05T16:56:50.027Z,995.153
2019-02-05T16:58:50.337Z,995.157
2019-02-05T17:00:50.310Z,995.198
2019-02-05T17:02:50.210Z,995.206
2019-02-05T17:04:50.175Z,995.231
2019-02-05T17:06:50.573Z,995.275
2019-02-05T17:08:49.763Z,995.291
2019-02-05T17:10:50.584Z,995.335
2019-02-05T17:12:50.372Z,995.353
2019-02-05T17:14:50.724Z,995.382
2019-02-05T17:16:49.876Z,995.387
2019-02-05T17:18:49.639Z,995.415
2019-02-05T17:20:50.439Z,995.434
2019-02-05T17:22:50.241Z,995.465
2019-02-05T17:24:49.957Z,995.462
2019-02-05T17:26:49.840Z,995.468
2019-02-05T17:28:49.726Z,995.498
2019-02-05T17:30:50.694Z,995.503
2019-02-05T17:32:50.426Z,995.540
2019-02-05T17:34:50.376Z,995.568
2019-02-05T17:36:50.374Z,995.583
2019-02-05T17:38:50.258Z,995.583
2019-02-05T17:40:50.060Z,995.603
2019-02-05T17:42:49.979Z,995.601
2019-02-05T17:44:50.404Z,995.603
2019-02-05T17:46:50.402Z,995.591
2019-02-05T17:48:50.292Z,995.602
2019-02-05T17:50:50.059Z,995.603
2019-02-05T17:52:50.540Z,995.602
2019-02-05T17:54:50.535Z,995.604
2019-02-05T17:56:50.399Z,995.594
2019-02-05T17:58:50.237Z,995.614
2019-02-05T18:00:50.793Z,995.614
2019-02-05T18:02:52.081Z,995.672
2019-02-05T18:04:50.171Z,995.672
2019-02-05T18:06:50.017Z,995.700
2019-02-05T18:08:49.832Z,995.710
2019-02-05T18:10:50.586Z,995.756
2019-02-05T18:12:50.359Z,995.798
2019-02-05T18:14:50.200Z,995.816
2019-02-05T18:16:50.129Z,995.814
2019-02-05T18:18:49.910Z,995.815
2019-02-05T18:20:49.734Z,995.802
2019-02-05T18:22:50.543Z,995.794
2019-02-05T18:24:50.413Z,995.824
2019-02-05T18:26:50.544Z,995.862
2019-02-05T18:28:50.375Z,995.889
2019-02-05T18:30:50.246Z,995.874
2019-02-05T18:32:50.023Z,995.825
2019-02-05T18:34:50.217Z,995.788
2019-02-05T18:36:50.178Z,995.748
2019-02-05T18:38:50.232Z,995.706
2019-02-05T18:40:49.990Z,995.660
2019-02-05T18:42:49.734Z,995.610
2019-02-05T18:44:49.626Z,995.610
2019-02-05T18:46:50.906Z,995.616
2019-02-05T18:48:49.908Z,995.624
2019-02-05T18:50:49.656Z,995.580
2019-02-05T18:52:50.440Z,995.571
2019-02-05T18:54:50.831Z,995.564
2019-02-05T18:56:50.043Z,995.552
2019-02-05T18:58:49.934Z,995.561
2019-02-05T19:00:49.726Z,995.570
2019-02-05T19:02:50.541Z,995.571
2019-02-05T19:04:50.591Z,995.567
2019-02-05T19:06:50.561Z,995.555
2019-02-05T19:08:50.382Z,995.545
2019-02-05T19:10:50.174Z,995.553
2019-02-05T19:12:50.041Z,995.553
2019-02-05T19:14:49.949Z,995.553
2019-02-05T19:16:49.802Z,995.543
2019-02-05T19:18:50.606Z,995.581
2019-02-05T19:20:50.430Z,995.581
2019-02-05T19:22:50.265Z,995.635
2019-02-05T19:24:50.452Z,995.635
2019-02-05T19:26:50.527Z,995.658
2019-02-05T19:28:50.337Z,995.663
2019-02-05T19:30:50.132Z,995.655
2019-02-05T19:32:50.433Z,995.656
2019-02-05T19:34:49.727Z,995.673
2019-02-05T19:36:49.894Z,995.667
2019-02-05T19:38:49.706Z,995.663
2019-02-05T19:40:58.088Z,995.654
2019-02-05T19:42:50.023Z,995.631
2019-02-05T19:44:49.865Z,995.609
2019-02-05T19:46:50.513Z,995.611
2019-02-05T19:48:50.326Z,995.620
2019-02-05T19:50:50.175Z,995.623
2019-02-05T19:52:49.957Z,995.601
2019-02-05T19:54:49.813Z,995.620
2019-02-05T19:56:50.393Z,995.618
2019-02-05T19:58:50.537Z,995.623
2019-02-05T20:00:50.754Z,995.613
2019-02-05T20:02:50.579Z,995.601
2019-02-05T20:04:50.551Z,995.598
2019-02-05T20:06:50.473Z,995.589
2019-02-05T20:08:50.750Z,995.597
2019-02-05T20:10:49.738Z,995.593
2019-02-05T20:12:50.608Z,995.551
2019-02-05T20:14:50.414Z,995.551
2019-02-05T20:16:50.294Z,995.550
2019-02-05T20:18:50.120Z,995.552
2019-02-05T20:20:49.980Z,995.560
2019-02-05T20:22:49.778Z,995.538
2019-02-05T20:24:50.595Z,995.508
2019-02-05T20:26:50.533Z,995.480
2019-02-05T20:28:50.381Z,995.460
2019-02-05T20:30:50.156Z,995.433
2019-02-05T20:32:49.929Z,995.439
2019-02-05T20:34:50.125Z,995.462
2019-02-05T20:36:49.964Z,995.477
2019-02-05T20:38:50.489Z,995.515
2019-02-05T20:40:49.787Z,995.541
2019-02-05T20:42:49.631Z,995.528
2019-02-05T20:44:50.419Z,995.516
2019-02-05T20:46:50.315Z,995.469
2019-02-05T20:48:50.086Z,995.460
2019-02-05T20:50:50.036Z,995.461
2019-02-05T20:52:49.838Z,995.489
2019-02-05T20:54:49.679Z,995.499
2019-02-05T20:56:50.602Z,995.496
2019-02-05T20:58:50.458Z,995.482
2019-02-05T21:00:50.939Z,995.483
2019-02-05T21:02:50.101Z,995.490
2019-02-05T21:04:50.160Z,995.505
2019-02-05T21:06:50.105Z,995.498
2019-02-05T21:08:49.916Z,995.509
2019-02-05T21:10:49.724Z,995.531
2019-02-05T21:12:50.565Z,995.592
2019-02-05T21:14:50.364Z,995.606
2019-02-05T21:16:50.237Z,995.642
2019-02-05T21:18:50.183Z,995.642
2019-02-05T21:20:50.001Z,995.629
2019-02-05T21:22:50.430Z,995.660
2019-02-05T21:24:50.591Z,995.666
2019-02-05T21:26:50.499Z,995.677
2019-02-05T21:28:50.684Z,995.679
2019-02-05T21:30:50.522Z,995.668
2019-02-05T21:32:50.554Z,995.689
2019-02-05T21:34:49.725Z,995.701
2019-02-05T21:36:50.676Z,995.715
2019-02-05T21:38:50.553Z,995.723
2019-02-05T21:40:50.457Z,995.752
2019-02-05T21:42:50.253Z,995.779
2019-02-05T21:44:50.055Z,995.820
2019-02-05T21:46:49.952Z,995.826
2019-02-05T21:48:49.737Z,995.812
2019-02-05T21:50:49.723Z,995.852
2019-02-05T21:52:51.255Z,995.881
2019-02-05T21:54:50.314Z,995.890
2019-02-05T21:56:50.237Z,995.873
2019-02-05T21:58:50.058Z,995.872
2019-02-05T22:00:49.922Z,995.871
2019-02-05T22:02:49.859Z,995.861
2019-02-05T22:04:50.044Z,995.874
2019-02-05T22:06:49.993Z,995.905
2019-02-05T22:08:49.878Z,995.901
2019-02-05T22:10:49.762Z,995.883
2019-02-05T22:12:51.292Z,995.875
2019-02-05T22:14:51.051Z,995.867
2019-02-05T22:16:50.798Z,995.865
2019-02-05T22:18:50.512Z,995.846
2019-02-05T22:20:50.360Z,995.841
2019-02-05T22:22:51.140Z,995.818
2019-02-05T22:24:50.808Z,995.794
2019-02-05T22:26:50.016Z,995.792
2019-02-05T22:28:49.905Z,995.789
2019-02-05T22:30:50.006Z,995.778
2019-02-05T22:32:49.933Z,995.779
2019-02-05T22:34:49.967Z,995.768
2019-02-05T22:36:49.984Z,995.754
2019-02-05T22:38:50.463Z,995.762
2019-02-05T22:40:50.848Z,995.751
2019-02-05T22:42:49.649Z,995.713
2019-02-05T22:44:50.553Z,995.714
2019-02-05T22:46:50.438Z,995.714
2019-02-05T22:48:50.298Z,995.719
2019-02-05T22:50:50.133Z,995.722
2019-02-05T22:52:49.971Z,995.706
2019-02-05T22:54:49.835Z,995.672
2019-02-05T22:56:50.371Z,995.682
2019-02-05T22:58:50.449Z,995.693
2019-02-05T23:00:50.448Z,995.698
2019-02-05T23:02:50.323Z,995.690
2019-02-05T23:04:51.430Z,995.676
2019-02-05T23:06:50.522Z,995.670
2019-02-05T23:08:50.409Z,995.692
2019-02-05T23:10:51.609Z,995.703
2019-02-05T23:12:50.463Z,995.708
2019-02-05T23:14:50.301Z,995.708
2019-02-05T23:16:50.758Z,995.711
2019-02-05T23:18:49.849Z,995.721
2019-02-05T23:20:49.684Z,995.711
2019-02-05T23:22:50.476Z,995.706
2019-02-05T23:24:50.352Z,995.677
2019-02-05T23:26:50.268Z,995.680
2019-02-05T23:28:50.118Z,995.709
2019-02-05T23:30:49.949Z,995.712
2019-02-05T23:32:49.919Z,995.728
2019-02-05T23:34:49.966Z,995.747
2019-02-05T23:36:50.009Z,995.765
2019-02-05T23:38:49.799Z,995.765
2019-02-05T23:40:49.665Z,995.762
2019-02-05T23:42:50.551Z,995.763
2019-02-05T23:44:50.271Z,995.764
2019-02-05T23:46:50.390Z,995.742
2019-02-05T23:48:50.236Z,995.735
2019-02-05T23:50:50.103Z,995.731
2019-02-05T23:52:49.952Z,995.712
2019-02-05T23:54:50.365Z,995.700
2019-02-05T23:56:50.528Z,995.684
2019-02-05T23:58:50.340Z,995.683
